»·PEaware :: WAT306 KMER-KBUR

WAT306 :: KMER-KBUR

FLIGHT INFORMATION

Flight Status: Arrived
Operator:
Walker Air Transport
More flights by this operator :: More flights under this callsign
Pilot: Ethan S. (29221)
Aircraft: SOCATA TBM-900
(TBM9)
More flights by this aircraft type
Origin: KMER Castle
United States
Destination: KBUR Bob Hope-Burbank
United States
More flights between these airports :: More routes between these airports
Route: HYP EHF WEESL1
File this flight plan on PilotEdge
Remarks:
Altitude:
(Current/Filed)
23,000ft
Speed:
(Current/Filed)
280kts
Departed: 09-Jan-21 07:17 PM
Arrived: 09-Jan-21 08:10 PM
Distance/Time
Traveled:
219nm/0:53
Distance/Time
To Go:
Arrived

Flight Plot

Page will automatically refresh every two minutes.

Flight plan parsing failed; only flown route is shown


Map Options




Map Legend


Flown Route
Filed Route
Departure Airport
Arrival Airport
Navaid (VOR, NDB)
Fix

Horizontal Profiles

Position Reports

Time Latitude Longitude Heading Altitude Ground
Speed
09-Jan-21 19:15 37.378262 -120.523934 142 6591ft 139kts
09-Jan-21 19:16 37.341693 -120.489505 142 7549ft 208kts
09-Jan-21 19:17 37.289666 -120.451104 149 9570ft 166kts
09-Jan-21 19:18 37.253074 -120.424614 149 12427ft 150kts
09-Jan-21 19:19 37.215608 -120.397261 147 14673ft 157kts
09-Jan-21 19:20 37.176712 -120.367321 147 17062ft 168kts
09-Jan-21 19:21 37.136829 -120.336630 148 19720ft 170kts
09-Jan-21 19:22 37.095303 -120.304701 148 22001ft 180kts
09-Jan-21 19:23 37.045121 -120.266152 148 23045ft 254kts
09-Jan-21 19:24 36.978137 -120.214770 148 23005ft 288kts
09-Jan-21 19:25 36.907871 -120.161064 148 23001ft 295kts
09-Jan-21 19:26 36.836727 -120.106801 148 23000ft 296kts
09-Jan-21 19:27 36.764762 -120.052028 148 23000ft 296kts
09-Jan-21 19:28 36.692605 -119.997227 148 23000ft 296kts
09-Jan-21 19:29 36.620425 -119.942529 148 23000ft 297kts
09-Jan-21 19:30 36.549154 -119.888637 148 22999ft 296kts
09-Jan-21 19:31 36.477031 -119.834220 148 23000ft 296kts
09-Jan-21 19:32 36.404539 -119.779646 148 23000ft 296kts
09-Jan-21 19:33 36.331863 -119.725054 148 23000ft 297kts
09-Jan-21 19:34 36.259813 -119.671051 148 23000ft 297kts
09-Jan-21 19:35 36.187791 -119.617185 148 23000ft 297kts
09-Jan-21 19:36 36.115815 -119.563473 148 23000ft 297kts
09-Jan-21 19:37 36.043718 -119.509784 148 23000ft 297kts
09-Jan-21 19:38 35.971404 -119.456051 148 23000ft 297kts
09-Jan-21 19:39 35.899092 -119.402435 148 23000ft 297kts
09-Jan-21 19:40 35.827541 -119.349502 149 23000ft 297kts
09-Jan-21 19:41 35.756082 -119.296743 149 23000ft 297kts
09-Jan-21 19:42 35.684546 -119.244040 149 23000ft 297kts
09-Jan-21 19:43 35.612915 -119.191380 149 23000ft 297kts
09-Jan-21 19:44 35.540709 -119.138408 149 23000ft 297kts
09-Jan-21 19:45 35.468084 -119.088213 155 23001ft 297kts
09-Jan-21 19:46 35.391255 -119.046083 155 23000ft 297kts
09-Jan-21 19:47 35.313921 -119.003736 155 23000ft 297kts
09-Jan-21 19:48 35.236704 -118.961541 155 23000ft 298kts
09-Jan-21 19:49 35.159431 -118.919433 155 23000ft 298kts
09-Jan-21 19:50 35.082132 -118.877457 155 23000ft 298kts
09-Jan-21 19:51 35.006317 -118.836382 155 22464ft 273kts
09-Jan-21 19:52 34.942036 -118.801591 155 19644ft 231kts
09-Jan-21 19:53 34.884348 -118.778826 162 17212ft 194kts
09-Jan-21 19:54 34.835210 -118.759770 162 14770ft 180kts
09-Jan-21 19:55 34.787202 -118.740826 156 12231ft 179kts
09-Jan-21 19:56 34.740383 -118.716651 156 9709ft 183kts
09-Jan-21 19:57 34.698365 -118.695014 154 9115ft 157kts
09-Jan-21 19:58 34.642345 -118.665660 154 9085ft 247kts
09-Jan-21 19:59 34.575621 -118.629329 154 9036ft 259kts
09-Jan-21 20:00 34.508198 -118.593121 161 8935ft 265kts
09-Jan-21 20:01 34.434101 -118.569356 155 7396ft 264kts
09-Jan-21 20:02 34.369187 -118.535947 155 5858ft 229kts
09-Jan-21 20:03 34.323874 -118.498467 92 4967ft 168kts
09-Jan-21 20:04 34.317897 -118.438877 91 3979ft 192kts
09-Jan-21 20:05 34.309307 -118.373211 134 3090ft 180kts
09-Jan-21 20:06 34.270345 -118.376512 164 2316ft 131kts
09-Jan-21 20:07 34.244333 -118.369358 167 1680ft 96kts
09-Jan-21 20:08 34.219006 -118.362319 166 1013ft 94kts
09-Jan-21 20:09 34.200632 -118.357246 166 726ft 28kts
09-Jan-21 20:10 34.198960 -118.357908 323 719ft 0kts
09-Jan-21 20:11 34.199140 -118.357991 351 719ft 8kts
09-Jan-21 20:12 34.200177 -118.359470 346 726ft 1kts
09-Jan-21 20:13 34.200194 -118.359475 346 726ft 0kts
09-Jan-21 20:14 34.200194 -118.359475 346 726ft 0kts

Navigation Log

Ident Type
Flight plan parsing failed, navigation log unavailable